Time;durP1;ratioP1;P1;durP2;ratioP2;P2;SDS_P1;SDS_P2;PMS_P1;PMS_P2;Temp;Humidity;BMP_temperature;BMP_pressure;BME280_temperature;BME280_humidity;BME280_pressure;Samples;Min_cycle;Max_cycle;Signal;HPM_P1;HPM_P2
2024/01/07 00:01:02;;;;;;;47.97;23.47;;;3.00;99.90;;;;;;4827608;29;20193;-71
2024/01/07 00:03:28;;;;;;;49.13;25.33;;;3.00;99.90;;;;;;4859869;29;20242;-72
2024/01/07 00:05:53;;;;;;;49.17;26.30;;;3.00;99.90;;;;;;4865841;29;20218;-72
2024/01/07 00:08:19;;;;;;;49.77;25.83;;;3.10;99.90;;;;;;4868945;29;20188;-73
2024/01/07 00:10:44;;;;;;;42.47;22.00;;;3.10;99.90;;;;;;4870048;29;20685;-73
2024/01/07 00:13:10;;;;;;;41.30;25.30;;;3.00;99.90;;;;;;4862342;29;20551;-72
2024/01/07 00:15:36;;;;;;;39.67;22.67;;;3.00;99.90;;;;;;4865540;29;20243;-75
2024/01/07 00:18:01;;;;;;;39.67;22.30;;;3.00;99.90;;;;;;4864733;29;20204;-72
2024/01/07 00:20:27;;;;;;;45.13;23.40;;;3.00;99.90;;;;;;4869304;29;20248;-73
2024/01/07 00:22:52;;;;;;;41.80;23.60;;;3.00;99.90;;;;;;4860560;29;20196;-73
2024/01/07 00:25:18;;;;;;;39.47;22.50;;;3.10;99.90;;;;;;4864869;29;20304;-73
2024/01/07 00:27:44;;;;;;;28.03;17.30;;;3.10;99.90;;;;;;4859461;29;20501;-72
2024/01/07 00:30:10;;;;;;;30.33;17.43;;;3.00;99.90;;;;;;4865433;29;20185;-69
2024/01/07 00:32:36;;;;;;;31.23;16.73;;;3.00;99.90;;;;;;4863616;29;20813;-70
2024/01/07 00:35:02;;;;;;;32.23;17.83;;;3.00;99.90;;;;;;4865548;29;20410;-72
2024/01/07 00:37:28;;;;;;;29.80;15.80;;;3.00;99.90;;;;;;4846683;29;20209;-72
2024/01/07 00:39:53;;;;;;;31.20;16.37;;;3.00;99.90;;;;;;4841548;29;20671;-69
2024/01/07 00:42:19;;;;;;;31.87;16.50;;;3.00;99.90;;;;;;4861515;29;20203;-71
2024/01/07 00:44:44;;;;;;;36.53;21.07;;;3.00;99.90;;;;;;4859314;29;20229;-71
2024/01/07 00:47:10;;;;;;;35.13;19.20;;;3.10;99.90;;;;;;4851821;29;20186;-71
2024/01/07 00:49:35;;;;;;;32.33;18.00;;;3.10;99.90;;;;;;4856702;29;20663;-71
2024/01/07 00:52:01;;;;;;;27.33;16.60;;;3.10;99.90;;;;;;4841479;29;20232;-75
2024/01/07 00:54:26;;;;;;;27.47;15.80;;;3.10;99.90;;;;;;4864728;29;20469;-72
2024/01/07 00:56:52;;;;;;;24.40;15.27;;;3.10;99.90;;;;;;4842250;29;20308;-73
2024/01/07 00:59:18;;;;;;;26.90;15.80;;;3.00;99.90;;;;;;4842624;29;20196;-71
2024/01/07 01:01:43;;;;;;;25.10;14.37;;;3.00;99.90;;;;;;4839065;29;20664;-71
2024/01/07 01:04:09;;;;;;;26.60;15.03;;;3.00;99.90;;;;;;4858045;29;20587;-72
2024/01/07 01:06:34;;;;;;;22.40;13.30;;;3.00;99.90;;;;;;4861213;29;20215;-72
2024/01/07 01:09:00;;;;;;;25.43;13.70;;;3.00;99.90;;;;;;4841600;29;20490;-72
2024/01/07 01:11:25;;;;;;;25.90;14.07;;;3.00;99.90;;;;;;4845166;29;20533;-71
2024/01/07 01:13:51;;;;;;;24.40;12.93;;;3.00;99.90;;;;;;4862466;29;20201;-70
2024/01/07 01:16:16;;;;;;;24.30;13.70;;;3.00;99.90;;;;;;4848689;29;20245;-71
2024/01/07 01:18:42;;;;;;;23.40;13.00;;;3.00;99.90;;;;;;4851600;29;20241;-71
2024/01/07 01:21:09;;;;;;;22.30;13.17;;;3.00;99.90;;;;;;4851621;29;20196;-71
2024/01/07 01:23:34;;;;;;;20.30;12.23;;;3.00;99.90;;;;;;4857546;29;20200;-71
2024/01/07 01:26:00;;;;;;;20.60;12.93;;;3.00;99.90;;;;;;4849661;29;20926;-71
2024/01/07 01:28:26;;;;;;;21.17;12.67;;;3.00;99.90;;;;;;4862307;29;20205;-72
2024/01/07 01:30:51;;;;;;;21.70;12.60;;;3.00;99.90;;;;;;4867589;29;20204;-70
2024/01/07 01:33:17;;;;;;;19.27;11.77;;;3.00;99.90;;;;;;4864367;29;20324;-69
2024/01/07 01:35:43;;;;;;;22.40;13.53;;;3.00;99.90;;;;;;4861260;29;20221;-70
2024/01/07 01:38:09;;;;;;;19.57;11.90;;;3.00;99.90;;;;;;4862602;29;20277;-71
2024/01/07 01:40:34;;;;;;;21.20;12.50;;;3.00;99.90;;;;;;4853363;29;20473;-71
2024/01/07 01:43:00;;;;;;;19.67;11.77;;;3.00;99.90;;;;;;4855259;29;20208;-73
2024/01/07 01:45:25;;;;;;;20.93;12.57;;;3.00;99.90;;;;;;4841716;29;20220;-71
2024/01/07 01:47:51;;;;;;;22.37;13.57;;;3.00;99.90;;;;;;4868028;29;20204;-71
2024/01/07 01:50:17;;;;;;;22.60;11.70;;;3.10;99.90;;;;;;4861557;29;20561;-71
2024/01/07 01:52:46;;;;;;;19.67;10.53;;;3.10;99.90;;;;;;4858903;29;20199;-72
2024/01/07 01:55:12;;;;;;;21.20;12.70;;;3.10;99.90;;;;;;4858581;29;20461;-70
2024/01/07 01:57:40;;;;;;;20.33;11.83;;;3.10;99.90;;;;;;4842706;29;20425;-74
2024/01/07 02:00:06;;;;;;;22.13;12.50;;;3.00;99.90;;;;;;4854154;29;20429;-70
2024/01/07 02:02:34;;;;;;;20.47;11.73;;;3.20;99.90;;;;;;4859941;29;20771;-70
2024/01/07 02:05:03;;;;;;;17.43;11.20;;;3.20;99.90;;;;;;4866132;29;20425;-72
2024/01/07 02:07:30;;;;;;;20.50;13.23;;;3.10;99.90;;;;;;4860814;29;20425;-70
2024/01/07 02:09:56;;;;;;;17.90;11.43;;;3.10;99.90;;;;;;4847037;29;20409;-69
2024/01/07 02:12:22;;;;;;;20.20;12.07;;;3.10;99.90;;;;;;4857973;29;20484;-70
2024/01/07 02:14:47;;;;;;;17.80;10.57;;;3.10;99.90;;;;;;4857301;29;20223;-72
2024/01/07 02:17:14;;;;;;;16.00;11.87;;;3.10;99.90;;;;;;4845935;29;20445;-72
2024/01/07 02:19:40;;;;;;;18.00;12.33;;;3.00;99.90;;;;;;4854751;29;20193;-73
2024/01/07 02:22:05;;;;;;;16.67;10.50;;;3.00;99.90;;;;;;4843807;29;20446;-69
2024/01/07 02:24:32;;;;;;;17.73;11.03;;;3.00;99.90;;;;;;4863454;29;20200;-70
2024/01/07 02:26:58;;;;;;;16.83;11.27;;;3.10;99.90;;;;;;4845346;29;20249;-71
2024/01/07 02:29:25;;;;;;;17.40;10.60;;;3.10;99.90;;;;;;4860209;29;20708;-70
2024/01/07 02:31:51;;;;;;;18.70;11.67;;;3.10;99.90;;;;;;4859876;29;20482;-71
2024/01/07 02:34:16;;;;;;;18.67;13.63;;;3.00;99.90;;;;;;4854862;29;20471;-70
2024/01/07 02:36:42;;;;;;;22.27;13.47;;;3.10;99.90;;;;;;4841000;29;20220;-70
2024/01/07 02:39:07;;;;;;;16.73;11.00;;;3.10;99.90;;;;;;4861018;29;20621;-70
2024/01/07 02:41:33;;;;;;;16.57;10.70;;;3.10;99.90;;;;;;4858019;29;20233;-69
2024/01/07 02:43:58;;;;;;;18.33;11.47;;;3.10;99.90;;;;;;4836133;29;20576;-69
2024/01/07 02:46:24;;;;;;;22.13;14.03;;;3.10;99.90;;;;;;4859052;29;20438;-69
2024/01/07 02:48:49;;;;;;;18.80;11.40;;;3.00;99.90;;;;;;4859971;29;20508;-71
2024/01/07 02:51:15;;;;;;;23.70;13.43;;;3.00;99.90;;;;;;4852106;29;20615;-69
2024/01/07 02:53:40;;;;;;;23.73;12.43;;;3.00;99.90;;;;;;4851295;29;20193;-69
2024/01/07 02:56:08;;;;;;;17.53;11.57;;;3.00;99.90;;;;;;4850992;29;20297;-71
2024/01/07 02:58:34;;;;;;;18.43;10.50;;;3.00;99.90;;;;;;4857198;29;20189;-73
2024/01/07 03:01:00;;;;;;;20.00;12.73;;;3.00;99.90;;;;;;4834592;29;20446;-72
2024/01/07 03:03:26;;;;;;;20.20;12.47;;;3.00;99.90;;;;;;4858868;29;20490;-70
2024/01/07 03:05:51;;;;;;;21.83;14.07;;;3.00;99.90;;;;;;4858601;29;20449;-70
2024/01/07 03:08:17;;;;;;;24.47;13.80;;;3.00;99.90;;;;;;4854851;29;20193;-70
2024/01/07 03:10:42;;;;;;;21.20;13.50;;;3.00;99.90;;;;;;4859481;29;20204;-71
2024/01/07 03:13:08;;;;;;;21.80;15.00;;;3.00;99.90;;;;;;4852223;29;20213;-72
2024/01/07 03:15:33;;;;;;;19.03;13.00;;;2.90;99.90;;;;;;4853467;29;20232;-69
2024/01/07 03:17:59;;;;;;;24.00;13.53;;;2.90;99.90;;;;;;4854734;29;20212;-70
2024/01/07 03:20:24;;;;;;;24.47;13.80;;;2.90;99.90;;;;;;4855010;29;20205;-71
2024/01/07 03:22:50;;;;;;;19.63;12.93;;;2.80;99.90;;;;;;4838919;29;20200;-70
2024/01/07 03:25:15;;;;;;;22.20;14.10;;;2.80;99.90;;;;;;4853649;29;20231;-69
2024/01/07 03:27:41;;;;;;;23.13;16.03;;;2.80;99.90;;;;;;4850427;29;20224;-69
2024/01/07 03:30:09;;;;;;;19.63;14.00;;;2.80;99.90;;;;;;4850546;29;20189;-70
2024/01/07 03:32:34;;;;;;;19.30;12.73;;;2.80;99.90;;;;;;4862234;29;20618;-70
2024/01/07 03:35:00;;;;;;;30.60;16.40;;;2.70;99.90;;;;;;4836280;29;20444;-70
2024/01/07 03:37:25;;;;;;;19.37;13.40;;;2.70;99.90;;;;;;4842525;29;20252;-71
2024/01/07 03:39:51;;;;;;;18.93;13.27;;;2.70;99.90;;;;;;4863286;29;20272;-69
2024/01/07 03:42:16;;;;;;;22.00;13.63;;;2.70;99.90;;;;;;4859411;29;20228;-69
2024/01/07 03:44:42;;;;;;;22.17;13.87;;;2.70;99.90;;;;;;4845618;29;20196;-70
2024/01/07 03:47:09;;;;;;;23.70;16.50;;;2.80;99.90;;;;;;4865101;29;20231;-71
2024/01/07 03:49:36;;;;;;;31.10;17.90;;;2.80;99.90;;;;;;4860322;29;20217;-71
2024/01/07 03:52:02;;;;;;;27.30;15.90;;;2.80;99.90;;;;;;4862976;29;20453;-70
2024/01/07 03:54:28;;;;;;;28.90;17.90;;;2.80;99.90;;;;;;4842005;29;20426;-71
2024/01/07 03:56:53;;;;;;;30.70;18.13;;;2.80;99.90;;;;;;4860605;29;20510;-70
2024/01/07 03:59:19;;;;;;;32.07;18.93;;;2.80;99.90;;;;;;4851885;29;20299;-70
2024/01/07 04:01:44;;;;;;;31.70;18.90;;;2.80;99.90;;;;;;4859633;29;20298;-69
2024/01/07 04:04:10;;;;;;;30.00;17.60;;;2.80;99.90;;;;;;4859031;29;20550;-70
2024/01/07 04:06:37;;;;;;;33.70;17.80;;;2.80;99.90;;;;;;4859731;29;20216;-70
2024/01/07 04:09:03;;;;;;;31.90;18.20;;;2.80;99.90;;;;;;4860239;29;20660;-69
2024/01/07 04:11:29;;;;;;;29.20;17.00;;;2.80;99.90;;;;;;4862179;29;20508;-71
2024/01/07 04:13:54;;;;;;;30.30;18.50;;;2.70;99.90;;;;;;4858732;29;20857;-69
2024/01/07 04:16:20;;;;;;;30.27;17.63;;;2.70;99.90;;;;;;4864193;29;20221;-69
2024/01/07 04:18:47;;;;;;;33.10;20.30;;;2.70;99.90;;;;;;4859006;29;20435;-70
2024/01/07 04:21:13;;;;;;;36.40;19.53;;;2.70;99.90;;;;;;4862183;29;20437;-70
2024/01/07 04:23:40;;;;;;;34.10;20.27;;;2.70;99.90;;;;;;4867884;29;20481;-68
2024/01/07 04:26:07;;;;;;;27.87;18.00;;;2.70;99.90;;;;;;4866247;29;20208;-71
2024/01/07 04:28:32;;;;;;;30.37;19.50;;;2.70;99.90;;;;;;4837538;29;20459;-71
2024/01/07 04:30:58;;;;;;;28.87;17.10;;;2.70;99.90;;;;;;4850769;29;20437;-71
2024/01/07 04:33:23;;;;;;;24.97;16.97;;;2.70;99.90;;;;;;4856935;29;20228;-71
2024/01/07 04:35:49;;;;;;;31.47;16.90;;;2.70;99.90;;;;;;4853996;29;20530;-71
2024/01/07 04:38:14;;;;;;;26.77;15.73;;;2.80;99.90;;;;;;4856254;29;20641;-69
2024/01/07 04:40:40;;;;;;;28.47;17.30;;;2.90;99.90;;;;;;4861385;29;20802;-71
2024/01/07 04:43:05;;;;;;;28.30;18.10;;;2.90;99.90;;;;;;4861682;29;20212;-69
2024/01/07 04:45:31;;;;;;;28.37;16.80;;;2.80;99.90;;;;;;4858017;29;20287;-68
2024/01/07 04:47:56;;;;;;;32.93;20.30;;;2.80;99.90;;;;;;4853060;29;20205;-72
2024/01/07 04:50:22;;;;;;;34.03;19.60;;;2.80;99.90;;;;;;4856106;29;20212;-70
2024/01/07 04:52:48;;;;;;;29.73;17.80;;;2.80;99.90;;;;;;4864941;29;20215;-69
2024/01/07 04:55:14;;;;;;;27.60;17.83;;;2.90;99.90;;;;;;4853318;29;20449;-70
2024/01/07 04:57:39;;;;;;;32.50;19.07;;;2.80;99.90;;;;;;4861814;29;20200;-69
2024/01/07 05:00:06;;;;;;;24.93;15.57;;;2.70;99.90;;;;;;4845324;29;20430;-70
2024/01/07 05:02:31;;;;;;;29.40;17.20;;;2.70;99.90;;;;;;4867463;29;20227;-70
2024/01/07 05:04:57;;;;;;;26.13;16.30;;;2.60;99.90;;;;;;4864270;29;20425;-70
2024/01/07 05:07:22;;;;;;;27.57;17.10;;;2.60;99.90;;;;;;4860557;29;20265;-69
2024/01/07 05:09:48;;;;;;;24.90;16.07;;;2.60;99.90;;;;;;4862813;29;20603;-69
2024/01/07 05:12:14;;;;;;;26.27;16.50;;;2.60;99.90;;;;;;4858488;29;20208;-70
2024/01/07 05:14:40;;;;;;;27.77;16.13;;;2.60;99.90;;;;;;4866515;29;20193;-71
2024/01/07 05:17:07;;;;;;;26.83;16.50;;;2.50;99.90;;;;;;4869156;29;20312;-70
2024/01/07 05:19:33;;;;;;;29.10;18.40;;;2.50;99.90;;;;;;4859680;29;20468;-70
2024/01/07 05:21:59;;;;;;;26.27;16.80;;;2.60;99.90;;;;;;4853824;29;20414;-71
2024/01/07 05:24:25;;;;;;;24.33;16.13;;;2.60;99.90;;;;;;4853621;29;20627;-71
2024/01/07 05:26:50;;;;;;;25.00;16.47;;;2.60;99.90;;;;;;4852076;29;20228;-70
2024/01/07 05:29:16;;;;;;;28.00;17.00;;;2.50;99.90;;;;;;4856725;29;20423;-67
2024/01/07 05:31:41;;;;;;;24.23;16.50;;;2.50;99.90;;;;;;4859040;29;20233;-69
2024/01/07 05:34:07;;;;;;;28.23;18.13;;;2.60;99.90;;;;;;4864469;29;20197;-69
2024/01/07 05:36:33;;;;;;;25.53;15.60;;;2.60;99.90;;;;;;4856310;29;20217;-70
2024/01/07 05:38:59;;;;;;;24.27;15.73;;;2.60;99.90;;;;;;4863461;29;20692;-70
2024/01/07 05:41:24;;;;;;;27.20;17.07;;;2.50;99.90;;;;;;4853190;29;20515;-70
2024/01/07 05:43:51;;;;;;;27.43;17.53;;;2.50;99.90;;;;;;4856312;29;20260;-69
2024/01/07 05:46:16;;;;;;;27.73;17.37;;;2.50;99.90;;;;;;4858801;29;20303;-70
2024/01/07 05:48:48;;;;;;;29.73;17.40;;;2.60;99.90;;;;;;4853932;29;20476;-69
2024/01/07 05:51:14;;;;;;;26.33;17.40;;;2.60;99.90;;;;;;4856993;29;20196;-71
2024/01/07 05:53:40;;;;;;;26.70;18.13;;;2.60;99.90;;;;;;4860875;29;20437;-70
2024/01/07 05:56:07;;;;;;;28.87;16.17;;;2.60;99.90;;;;;;4862287;29;20561;-69
2024/01/07 05:58:32;;;;;;;27.63;16.77;;;2.50;99.90;;;;;;4851273;29;20449;-72
2024/01/07 06:00:58;;;;;;;22.50;15.13;;;2.60;99.90;;;;;;4853220;29;20449;-68
2024/01/07 06:03:24;;;;;;;22.00;14.33;;;2.60;99.90;;;;;;4867098;29;20239;-69
2024/01/07 06:05:49;;;;;;;24.20;15.67;;;2.60;99.90;;;;;;4860994;29;20217;-69
2024/01/07 06:08:15;;;;;;;27.37;17.33;;;2.60;99.90;;;;;;4857017;29;20616;-70
2024/01/07 06:10:41;;;;;;;22.43;15.23;;;2.60;99.90;;;;;;4863228;29;20200;-70
2024/01/07 06:13:07;;;;;;;22.20;14.23;;;2.60;99.90;;;;;;4862331;29;20216;-69
2024/01/07 06:15:32;;;;;;;26.13;16.00;;;2.60;99.90;;;;;;4844763;29;20453;-70
2024/01/07 06:17:58;;;;;;;24.23;15.57;;;2.50;99.90;;;;;;4861369;29;20880;-69
2024/01/07 06:20:24;;;;;;;26.27;16.37;;;2.50;99.90;;;;;;4864361;29;20260;-70
2024/01/07 06:22:50;;;;;;;26.17;16.87;;;2.50;99.90;;;;;;4851102;29;20569;-69
2024/01/07 06:25:16;;;;;;;27.80;15.33;;;2.50;99.90;;;;;;4849884;29;20457;-69
2024/01/07 06:27:42;;;;;;;25.10;17.03;;;2.50;99.90;;;;;;4860177;29;20890;-69
2024/01/07 06:30:08;;;;;;;24.53;17.57;;;2.40;99.90;;;;;;4834105;29;20495;-70
2024/01/07 06:32:33;;;;;;;23.43;16.43;;;2.40;99.90;;;;;;4848719;29;20621;-70
2024/01/07 06:34:59;;;;;;;25.90;16.90;;;2.50;99.90;;;;;;4853476;29;20466;-68
2024/01/07 06:37:25;;;;;;;26.87;16.97;;;2.40;99.90;;;;;;4860266;29;20219;-70
2024/01/07 06:39:51;;;;;;;22.13;15.57;;;2.50;99.90;;;;;;4851265;29;20252;-69
2024/01/07 06:42:17;;;;;;;24.50;15.87;;;2.50;99.90;;;;;;4859955;29;20686;-70
2024/01/07 06:44:42;;;;;;;23.67;17.00;;;2.50;99.90;;;;;;4859435;29;20434;-69
2024/01/07 06:47:08;;;;;;;23.80;16.57;;;2.50;99.90;;;;;;4858928;29;20208;-69
2024/01/07 06:49:33;;;;;;;22.80;15.40;;;2.50;99.90;;;;;;4847196;29;20200;-70
2024/01/07 06:51:59;;;;;;;23.67;15.83;;;2.60;99.90;;;;;;4855078;29;20298;-70
2024/01/07 06:54:25;;;;;;;28.83;17.80;;;2.60;99.90;;;;;;4846545;29;20208;-70
2024/01/07 06:56:51;;;;;;;23.53;15.73;;;2.60;99.90;;;;;;4832509;29;20641;-70
2024/01/07 06:59:16;;;;;;;22.33;15.17;;;2.50;99.90;;;;;;4857064;29;20474;-70
2024/01/07 07:01:42;;;;;;;27.33;17.53;;;2.50;99.90;;;;;;4850832;29;20513;-71
2024/01/07 07:04:07;;;;;;;25.53;16.20;;;2.50;99.90;;;;;;4854929;29;20585;-69
2024/01/07 07:06:34;;;;;;;20.93;14.00;;;2.50;99.90;;;;;;4852727;29;20216;-70
2024/01/07 07:09:00;;;;;;;23.93;15.40;;;2.50;99.90;;;;;;4846351;29;20288;-70
2024/01/07 07:11:25;;;;;;;26.57;15.13;;;2.50;99.90;;;;;;4844736;29;20490;-70
2024/01/07 07:13:51;;;;;;;27.43;15.33;;;2.40;99.90;;;;;;4855475;29;20216;-70
2024/01/07 07:16:16;;;;;;;23.87;14.43;;;2.40;99.90;;;;;;4857389;29;20208;-69
2024/01/07 07:18:42;;;;;;;21.00;13.57;;;2.40;99.90;;;;;;4861406;29;20270;-71
2024/01/07 07:21:08;;;;;;;17.53;12.50;;;2.40;99.90;;;;;;4860494;29;20200;-68
2024/01/07 07:23:33;;;;;;;19.83;14.60;;;2.50;99.90;;;;;;4863655;29;20272;-71
2024/01/07 07:25:59;;;;;;;19.63;13.07;;;2.50;99.90;;;;;;4867429;29;20248;-69
2024/01/07 07:28:24;;;;;;;19.30;13.53;;;2.50;99.90;;;;;;4854502;29;20523;-69
2024/01/07 07:30:52;;;;;;;18.03;13.03;;;2.50;99.90;;;;;;4862414;29;20226;-69
2024/01/07 07:33:17;;;;;;;18.77;13.13;;;2.50;99.90;;;;;;4865619;29;20578;-71
2024/01/07 07:35:43;;;;;;;20.47;14.77;;;2.50;99.90;;;;;;4865225;29;20452;-70
2024/01/07 07:38:08;;;;;;;18.07;13.30;;;2.40;99.90;;;;;;4860312;29;20207;-70
2024/01/07 07:40:34;;;;;;;18.97;12.80;;;2.40;99.90;;;;;;4851257;29;20453;-72
2024/01/07 07:42:59;;;;;;;19.10;13.10;;;2.40;99.90;;;;;;4857331;29;20463;-71
2024/01/07 07:45:25;;;;;;;19.63;12.70;;;2.50;99.90;;;;;;4858030;29;20672;-69
2024/01/07 07:47:50;;;;;;;19.13;13.27;;;2.50;99.90;;;;;;4861519;29;20208;-69
2024/01/07 07:50:16;;;;;;;16.17;11.40;;;2.50;99.90;;;;;;4851133;29;20227;-70
2024/01/07 07:52:43;;;;;;;17.53;12.90;;;2.50;99.90;;;;;;4863560;29;20264;-69
2024/01/07 07:55:09;;;;;;;25.80;13.23;;;2.60;99.90;;;;;;4861358;29;20224;-70
2024/01/07 07:57:35;;;;;;;18.13;13.70;;;2.50;99.90;;;;;;4841745;29;20446;-71
2024/01/07 08:00:01;;;;;;;20.87;14.50;;;2.50;99.90;;;;;;4858857;29;20505;-70
2024/01/07 08:02:28;;;;;;;19.57;13.73;;;2.40;99.90;;;;;;4857832;29;20713;-71
2024/01/07 08:04:53;;;;;;;21.60;13.97;;;2.40;99.90;;;;;;4854837;29;20888;-72
2024/01/07 08:07:19;;;;;;;22.20;15.27;;;2.30;99.90;;;;;;4858450;29;20425;-69
2024/01/07 08:09:44;;;;;;;20.07;13.60;;;2.30;99.90;;;;;;4867308;29;20244;-70
2024/01/07 08:12:11;;;;;;;20.70;14.17;;;2.40;99.90;;;;;;4856660;29;20224;-70
2024/01/07 08:14:40;;;;;;;22.33;14.63;;;2.50;99.90;;;;;;4855010;29;20191;-70
2024/01/07 08:17:07;;;;;;;19.10;12.70;;;2.50;99.90;;;;;;4878111;29;20453;-71
2024/01/07 08:19:32;;;;;;;20.90;14.00;;;2.50;99.90;;;;;;4859493;29;20539;-71
2024/01/07 08:21:58;;;;;;;16.23;11.60;;;2.50;99.90;;;;;;4857913;29;20853;-70
2024/01/07 08:24:24;;;;;;;17.57;12.57;;;2.50;99.90;;;;;;4839047;29;20196;-69
2024/01/07 08:26:51;;;;;;;19.90;12.77;;;2.30;99.90;;;;;;4848970;29;20220;-70
2024/01/07 08:29:17;;;;;;;21.83;13.43;;;2.40;99.90;;;;;;4857757;29;20479;-71
2024/01/07 08:31:42;;;;;;;20.50;13.03;;;2.40;99.90;;;;;;4835629;29;20486;-70
2024/01/07 08:34:08;;;;;;;20.27;13.27;;;2.30;99.90;;;;;;4854973;29;20193;-71
2024/01/07 08:36:34;;;;;;;18.93;12.00;;;2.30;99.90;;;;;;4845537;29;20257;-71
2024/01/07 08:39:00;;;;;;;20.07;15.40;;;2.40;99.90;;;;;;4867973;29;20193;-70
2024/01/07 08:41:26;;;;;;;19.27;12.87;;;2.40;99.90;;;;;;4837315;29;20538;-72
2024/01/07 08:43:52;;;;;;;23.13;14.60;;;2.40;99.90;;;;;;4866713;29;20528;-70
2024/01/07 08:46:20;;;;;;;21.03;13.53;;;2.40;99.90;;;;;;4862917;29;20572;-71
2024/01/07 08:48:45;;;;;;;18.10;13.30;;;2.40;99.90;;;;;;4864715;29;20690;-70
2024/01/07 08:51:11;;;;;;;19.67;13.17;;;2.40;99.90;;;;;;4855590;29;20579;-69
2024/01/07 08:53:36;;;;;;;21.83;13.67;;;2.40;99.90;;;;;;4859000;29;20224;-71
2024/01/07 08:56:02;;;;;;;24.17;14.90;;;2.40;99.90;;;;;;4861087;29;20266;-70
2024/01/07 08:58:28;;;;;;;23.60;15.80;;;2.50;99.90;;;;;;4863003;29;20546;-71
2024/01/07 09:00:53;;;;;;;25.30;15.20;;;2.50;99.90;;;;;;4863673;29;20271;-70
2024/01/07 09:03:19;;;;;;;22.63;15.63;;;2.40;99.90;;;;;;4861686;29;20236;-71
2024/01/07 09:05:45;;;;;;;24.40;15.13;;;2.40;99.90;;;;;;4846605;29;20220;-71
2024/01/07 09:08:11;;;;;;;23.20;14.70;;;2.50;99.90;;;;;;4871272;29;20207;-71
2024/01/07 09:10:36;;;;;;;22.47;15.10;;;2.40;99.90;;;;;;4865030;29;20877;-73
2024/01/07 09:13:05;;;;;;;24.83;15.63;;;2.30;99.90;;;;;;4866451;29;20461;-71
2024/01/07 09:15:32;;;;;;;22.17;14.60;;;2.30;99.90;;;;;;4854715;29;20205;-72
2024/01/07 09:17:58;;;;;;;20.03;13.83;;;2.30;99.90;;;;;;4859114;29;20433;-71
2024/01/07 09:20:23;;;;;;;21.17;14.30;;;2.40;99.90;;;;;;4863507;29;20903;-70
2024/01/07 09:22:49;;;;;;;24.60;14.93;;;2.50;99.90;;;;;;4865304;29;20204;-70
2024/01/07 09:25:15;;;;;;;21.90;14.10;;;2.50;99.90;;;;;;4860398;29;20414;-71
2024/01/07 09:27:40;;;;;;;27.30;15.33;;;2.40;99.90;;;;;;4854225;29;20200;-71
2024/01/07 09:30:07;;;;;;;23.23;15.60;;;2.30;99.90;;;;;;4852744;29;20394;-72
2024/01/07 09:32:32;;;;;;;22.30;14.40;;;2.40;99.90;;;;;;4852875;29;20451;-70
2024/01/07 09:34:58;;;;;;;19.93;13.30;;;2.40;99.90;;;;;;4852334;29;20429;-71
2024/01/07 09:37:23;;;;;;;18.90;12.67;;;2.40;99.90;;;;;;4864531;29;20199;-70
2024/01/07 09:39:49;;;;;;;19.63;12.23;;;2.40;99.90;;;;;;4865306;29;20589;-70
2024/01/07 09:42:17;;;;;;;15.67;11.07;;;2.50;99.90;;;;;;4852330;29;20609;-74
2024/01/07 09:44:42;;;;;;;12.77;9.77;;;2.60;99.90;;;;;;4852822;29;20190;-72
2024/01/07 09:47:12;;;;;;;14.30;11.00;;;2.60;99.90;;;;;;4855138;29;20462;-71
2024/01/07 09:49:42;;;;;;;16.80;10.90;;;2.50;99.90;;;;;;4846644;29;20213;-70
2024/01/07 09:52:09;;;;;;;13.17;10.80;;;2.50;99.90;;;;;;4859622;29;20476;-70
2024/01/07 09:54:40;;;;;;;15.67;11.17;;;2.50;99.90;;;;;;4863451;29;20444;-71
2024/01/07 09:57:07;;;;;;;14.00;10.40;;;2.50;99.90;;;;;;4862690;29;20473;-72
2024/01/07 09:59:34;;;;;;;15.63;10.60;;;2.60;99.90;;;;;;4863099;29;20418;-73
2024/01/07 10:02:01;;;;;;;15.40;9.77;;;2.50;99.90;;;;;;4866012;29;20571;-69
2024/01/07 10:04:28;;;;;;;13.00;9.80;;;2.60;99.90;;;;;;4854499;29;20854;-70
2024/01/07 10:06:54;;;;;;;11.67;9.33;;;2.60;99.90;;;;;;4862185;29;20312;-72
2024/01/07 10:09:23;;;;;;;12.40;8.90;;;2.70;99.90;;;;;;4860588;29;20775;-69
2024/01/07 10:11:49;;;;;;;13.70;8.80;;;2.70;99.90;;;;;;4865352;29;20227;-72
2024/01/07 10:14:15;;;;;;;12.77;9.47;;;2.70;99.90;;;;;;4857471;29;20418;-71
2024/01/07 10:16:41;;;;;;;12.97;9.70;;;2.80;99.90;;;;;;4860200;29;20458;-73
2024/01/07 10:19:07;;;;;;;15.90;10.30;;;2.70;99.90;;;;;;4850980;29;20775;-71
2024/01/07 10:21:33;;;;;;;15.17;11.73;;;2.70;99.90;;;;;;4850356;29;20181;-71
2024/01/07 10:24:12;;;;;;;11.80;9.27;;;2.70;99.90;;;;;;4855894;29;20437;-71
2024/01/07 10:26:38;;;;;;;12.93;10.17;;;2.80;99.90;;;;;;4863091;29;20462;-71
2024/01/07 10:29:04;;;;;;;15.07;10.50;;;2.70;99.90;;;;;;4859955;29;20443;-70
2024/01/07 10:31:31;;;;;;;11.27;8.63;;;2.80;99.90;;;;;;4855686;29;20446;-72
2024/01/07 10:33:57;;;;;;;12.30;9.37;;;2.70;99.90;;;;;;4866510;29;20490;-70
2024/01/07 10:36:24;;;;;;;11.00;8.20;;;2.70;99.90;;;;;;4857268;29;20457;-70
2024/01/07 10:38:50;;;;;;;12.30;8.57;;;2.70;99.90;;;;;;4857651;29;20193;-71
2024/01/07 10:41:18;;;;;;;13.33;9.10;;;2.50;99.90;;;;;;4849097;29;20414;-76
2024/01/07 10:43:46;;;;;;;13.20;9.53;;;2.50;99.90;;;;;;4847370;29;20942;-71
2024/01/07 10:46:14;;;;;;;14.70;9.90;;;2.50;99.90;;;;;;4855148;29;20468;-70
2024/01/07 10:48:59;;;;;;;12.43;9.70;;;2.50;99.90;;;;;;4860424;29;20825;-71
2024/01/07 10:51:32;;;;;;;13.93;9.97;;;2.50;99.90;;;;;;4855023;29;20474;-71
2024/01/07 10:53:59;;;;;;;16.33;11.00;;;2.60;99.90;;;;;;4851050;29;20485;-70
2024/01/07 10:56:34;;;;;;;12.93;9.90;;;2.70;99.90;;;;;;4834905;29;20955;-70
2024/01/07 10:59:00;;;;;;;17.57;11.50;;;2.80;99.90;;;;;;4854428;29;20457;-71
2024/01/07 11:01:26;;;;;;;17.00;11.97;;;3.00;99.90;;;;;;4861707;29;20481;-69
2024/01/07 11:04:21;;;;;;;20.50;10.97;;;3.00;99.90;;;;;;4848073;29;20580;-72
2024/01/07 11:06:55;;;;;;;16.70;11.50;;;3.00;99.90;;;;;;4850274;29;20772;-73
2024/01/07 11:09:44;;;;;;;19.70;12.50;;;2.90;99.90;;;;;;4849493;29;20437;-71
2024/01/07 11:12:11;;;;;;;21.37;12.77;;;3.00;99.90;;;;;;4864898;29;20841;-71
2024/01/07 11:14:39;;;;;;;15.30;11.30;;;2.90;99.90;;;;;;4862450;29;20581;-73
2024/01/07 11:17:08;;;;;;;16.47;11.47;;;2.80;99.90;;;;;;4855601;29;20594;-72
2024/01/07 11:19:35;;;;;;;15.93;10.83;;;2.90;99.90;;;;;;4863199;29;20429;-70
2024/01/07 11:22:23;;;;;;;18.50;12.10;;;2.90;99.90;;;;;;4862779;29;20442;-70
2024/01/07 11:24:50;;;;;;;18.97;12.40;;;3.00;99.90;;;;;;4859318;29;20430;-70
2024/01/07 11:27:16;;;;;;;17.40;12.37;;;3.00;99.90;;;;;;4833646;29;20579;-73
2024/01/07 11:29:42;;;;;;;18.63;11.97;;;3.10;99.90;;;;;;4859776;29;20491;-71
2024/01/07 11:32:08;;;;;;;15.70;12.00;;;3.10;99.90;;;;;;4856116;29;20227;-71
2024/01/07 11:34:43;;;;;;;17.30;11.30;;;3.10;99.90;;;;;;4862091;29;20291;-72
2024/01/07 11:37:13;;;;;;;16.57;11.77;;;3.00;99.90;;;;;;4858562;29;20437;-70
2024/01/07 11:39:49;;;;;;;19.87;12.10;;;2.90;99.90;;;;;;4856330;29;20436;-71
2024/01/07 11:42:15;;;;;;;16.10;11.57;;;2.90;99.90;;;;;;4859344;29;20781;-70
2024/01/07 11:44:48;;;;;;;15.40;11.77;;;2.90;99.90;;;;;;4840858;29;20474;-72
2024/01/07 11:47:15;;;;;;;16.37;11.50;;;2.80;99.90;;;;;;4864737;29;20279;-70
2024/01/07 11:49:41;;;;;;;15.93;11.93;;;2.80;99.90;;;;;;4858377;29;20973;-71
2024/01/07 11:52:06;;;;;;;17.50;11.70;;;2.70;99.90;;;;;;4835841;29;20537;-72
2024/01/07 11:54:32;;;;;;;16.00;11.70;;;2.70;99.90;;;;;;4860160;29;20598;-72
2024/01/07 11:56:58;;;;;;;19.27;13.23;;;2.60;99.90;;;;;;4841106;29;20236;-71
2024/01/07 11:59:24;;;;;;;21.23;14.00;;;2.50;99.90;;;;;;4854619;29;20193;-73
2024/01/07 12:01:49;;;;;;;17.60;12.03;;;2.60;99.90;;;;;;4865968;29;20233;-70
2024/01/07 12:04:15;;;;;;;17.23;12.40;;;2.50;99.90;;;;;;4861088;29;20440;-73
2024/01/07 12:06:41;;;;;;;15.10;11.03;;;2.50;99.90;;;;;;4868627;29;20713;-71
2024/01/07 12:09:07;;;;;;;13.30;11.03;;;2.50;99.90;;;;;;4872458;29;20199;-71
2024/01/07 12:11:33;;;;;;;15.87;10.90;;;2.50;99.90;;;;;;4865066;29;20227;-72
2024/01/07 12:13:59;;;;;;;16.13;11.30;;;2.50;99.90;;;;;;4870952;29;20453;-72
2024/01/07 12:16:25;;;;;;;16.10;11.27;;;2.50;99.90;;;;;;4869695;29;20441;-71
2024/01/07 12:18:51;;;;;;;17.60;11.20;;;2.40;99.90;;;;;;4868721;29;20421;-71
2024/01/07 12:21:23;;;;;;;15.40;11.30;;;2.50;99.90;;;;;;4876475;29;20521;-71
2024/01/07 12:23:54;;;;;;;12.70;9.50;;;2.40;99.90;;;;;;4867477;29;20301;-71
2024/01/07 12:26:19;;;;;;;13.83;10.27;;;2.50;99.90;;;;;;4870005;29;20786;-71
2024/01/07 12:28:51;;;;;;;14.67;10.70;;;2.40;99.90;;;;;;4862749;29;20433;-74
2024/01/07 12:31:17;;;;;;;17.07;11.73;;;2.30;99.90;;;;;;4851433;29;20235;-74
2024/01/07 12:33:43;;;;;;;15.33;11.20;;;2.20;99.90;;;;;;4866397;29;20485;-71